Ana Sayfa
METAR-TAF:

METAR-TAF

Havaalanları :

Tawau, Malezya

Enlem: 04-16N, Boylam: 117-53E, yükseklik: 18 m

Güncel hava durumu gözlemi

Rapor saat 15:00 UTC de 44 dakika önce yapıldı.
Sakin rüzgar
Sıcaklık 24°C
Nem 89%
Basınç 1011 hPa
Görüş mesafesi 10 km veya daha fazla
1700 ft yükseklikte az bulutlu
30000 ft yükseklikte parçalı çok bulutlu

METAR: WBKW 211500Z 00000KT 9999 FEW017 BKN300 24/22 Q1011

Saat: 23:44 (15:44 UTC)

Tahmin

Rapor saat 11:00 UTC de 4 saat ve 44 dakika önce yapıldı.
Ayın 21'si saat 12 UTC'den ayın 22'si saat 12 UTC'ye kadar geçerli Tahmin
Rüzgar batı/güneybatıdan 5 kt
Görüş mesafesi 10 km veya daha fazla
1700 ft yükseklikte az bulutlu

TAF: WBKW 211100Z 2112/2212 24005KT 9999 FEW017

4.000'den fazla havaalanı için hava durumu gözlemleri ve tahminleri (METAR ve TAF raporları).

Kullanılabilir istasyonlar harita üzerinde sarı ve kırmızı noktalarla gösterilir.

İstasyonun adını görmek için fareyi noktanın üzerinde gezdirin.

Sonrasında hava gözlem ve tahminlerini görmek için tıklayın.

Haritayı değiştirmek için: yaklaştırmak için siyah artı işaretli yeşil düğmeye ve uzaklaştırmak için de eksi işaretli düğmeye hızla tıklayın; bitişik haritalar için yeşil okları kullanın.


METAR-TAF: